sensor_id;sensor_type;location;lat;lon;timestamp;pressure;altitude;pressure_sealevel;temperature;humidity
59407;BME280;45208;32.616;-115.472;2022-07-23T00:00:57;100190.31;;;51.28;10.03
59407;BME280;45208;32.616;-115.472;2022-07-23T00:03:24;100200.06;;;53.37;8.20
59407;BME280;45208;32.616;-115.472;2022-07-23T00:05:51;100192.50;;;54.41;7.24
59407;BME280;45208;32.616;-115.472;2022-07-23T00:08:17;100189.81;;;54.20;7.77
59407;BME280;45208;32.616;-115.472;2022-07-23T00:10:44;100190.03;;;52.22;9.49
59407;BME280;45208;32.616;-115.472;2022-07-23T00:13:11;100180.13;;;53.95;8.34
59407;BME280;45208;32.616;-115.472;2022-07-23T00:15:38;100176.63;;;53.35;8.38
59407;BME280;45208;32.616;-115.472;2022-07-23T00:18:04;100179.34;;;53.87;8.59
59407;BME280;45208;32.616;-115.472;2022-07-23T00:20:31;100177.06;;;52.52;8.89
59407;BME280;45208;32.616;-115.472;2022-07-23T00:22:58;100170.56;;;52.67;9.23
59407;BME280;45208;32.616;-115.472;2022-07-23T00:25:26;100177.34;;;51.84;9.29
59407;BME280;45208;32.616;-115.472;2022-07-23T00:27:53;100168.63;;;50.61;10.48
59407;BME280;45208;32.616;-115.472;2022-07-23T00:30:20;100158.84;;;50.77;9.46
59407;BME280;45208;32.616;-115.472;2022-07-23T00:32:47;100177.59;;;50.97;9.44
59407;BME280;45208;32.616;-115.472;2022-07-23T00:35:15;100174.81;;;49.21;11.23
59407;BME280;45208;32.616;-115.472;2022-07-23T00:37:42;100164.47;;;51.30;9.97
59407;BME280;45208;32.616;-115.472;2022-07-23T00:40:10;100165.31;;;50.70;9.72
59407;BME280;45208;32.616;-115.472;2022-07-23T00:42:38;100166.44;;;50.14;10.18
59407;BME280;45208;32.616;-115.472;2022-07-23T00:45:05;100162.78;;;49.17;11.61
59407;BME280;45208;32.616;-115.472;2022-07-23T00:47:33;100170.63;;;48.60;11.56
59407;BME280;45208;32.616;-115.472;2022-07-23T00:50:00;100168.88;;;48.95;11.47
59407;BME280;45208;32.616;-115.472;2022-07-23T00:52:26;100160.84;;;48.44;12.17
59407;BME280;45208;32.616;-115.472;2022-07-23T00:54:53;100158.41;;;48.92;11.76
59407;BME280;45208;32.616;-115.472;2022-07-23T00:57:20;100159.75;;;48.48;11.88
59407;BME280;45208;32.616;-115.472;2022-07-23T00:59:47;100160.13;;;48.82;12.15
59407;BME280;45208;32.616;-115.472;2022-07-23T01:02:13;100137.91;;;48.09;12.65
59407;BME280;45208;32.616;-115.472;2022-07-23T01:04:40;100153.75;;;48.21;12.71
59407;BME280;45208;32.616;-115.472;2022-07-23T01:07:07;100157.72;;;47.64;13.39
59407;BME280;45208;32.616;-115.472;2022-07-23T01:09:34;100159.38;;;47.53;13.42
59407;BME280;45208;32.616;-115.472;2022-07-23T01:12:01;100148.38;;;46.64;14.26
59407;BME280;45208;32.616;-115.472;2022-07-23T01:14:28;100156.31;;;46.99;14.08
59407;BME280;45208;32.616;-115.472;2022-07-23T01:16:54;100145.44;;;47.63;13.17
59407;BME280;45208;32.616;-115.472;2022-07-23T01:19:22;100151.00;;;46.62;13.46
59407;BME280;45208;32.616;-115.472;2022-07-23T01:21:50;100153.44;;;46.35;14.34
59407;BME280;45208;32.616;-115.472;2022-07-23T01:24:17;100148.22;;;46.28;13.99
59407;BME280;45208;32.616;-115.472;2022-07-23T01:27:05;100146.19;;;46.92;13.72
59407;BME280;45208;32.616;-115.472;2022-07-23T01:29:35;100155.75;;;46.54;14.23
59407;BME280;45208;32.616;-115.472;2022-07-23T01:32:06;100153.19;;;46.33;13.75
59407;BME280;45208;32.616;-115.472;2022-07-23T01:34:33;100154.06;;;45.84;14.52
59407;BME280;45208;32.616;-115.472;2022-07-23T01:37:00;100156.94;;;46.06;14.84
59407;BME280;45208;32.616;-115.472;2022-07-23T01:39:27;100153.28;;;45.44;15.17
59407;BME280;45208;32.616;-115.472;2022-07-23T01:41:54;100154.31;;;45.74;14.98
59407;BME280;45208;32.616;-115.472;2022-07-23T01:44:22;100151.75;;;45.65;15.36
59407;BME280;45208;32.616;-115.472;2022-07-23T01:46:49;100157.88;;;45.02;15.40
59407;BME280;45208;32.616;-115.472;2022-07-23T01:49:17;100161.72;;;44.28;16.16
59407;BME280;45208;32.616;-115.472;2022-07-23T01:51:50;100161.56;;;44.06;16.62
59407;BME280;45208;32.616;-115.472;2022-07-23T01:54:32;100168.09;;;43.75;16.91
59407;BME280;45208;32.616;-115.472;2022-07-23T01:57:00;100171.34;;;43.62;16.99
59407;BME280;45208;32.616;-115.472;2022-07-23T01:59:27;100161.97;;;43.62;16.98
59407;BME280;45208;32.616;-115.472;2022-07-23T02:01:54;100168.56;;;43.42;17.52
59407;BME280;45208;32.616;-115.472;2022-07-23T02:04:23;100161.78;;;43.13;17.54
59407;BME280;45208;32.616;-115.472;2022-07-23T02:06:52;100169.56;;;43.13;17.82
59407;BME280;45208;32.616;-115.472;2022-07-23T02:09:20;100162.94;;;43.01;17.57
59407;BME280;45208;32.616;-115.472;2022-07-23T02:11:47;100178.84;;;43.08;17.54
59407;BME280;45208;32.616;-115.472;2022-07-23T02:14:14;100186.03;;;42.77;18.04
59407;BME280;45208;32.616;-115.472;2022-07-23T02:16:40;100184.16;;;42.54;17.99
59407;BME280;45208;32.616;-115.472;2022-07-23T02:19:07;100190.38;;;42.52;18.41
59407;BME280;45208;32.616;-115.472;2022-07-23T02:21:36;100185.34;;;42.47;18.00
59407;BME280;45208;32.616;-115.472;2022-07-23T02:24:04;100197.72;;;42.39;18.40
59407;BME280;45208;32.616;-115.472;2022-07-23T02:26:31;100194.00;;;42.18;18.79
59407;BME280;45208;32.616;-115.472;2022-07-23T02:29:04;100196.09;;;42.03;19.09
59407;BME280;45208;32.616;-115.472;2022-07-23T02:31:32;100200.44;;;41.83;19.15
59407;BME280;45208;32.616;-115.472;2022-07-23T02:33:59;100207.19;;;41.66;19.70
59407;BME280;45208;32.616;-115.472;2022-07-23T02:36:27;100210.78;;;41.51;19.91
59407;BME280;45208;32.616;-115.472;2022-07-23T02:38:54;100210.06;;;41.27;20.39
59407;BME280;45208;32.616;-115.472;2022-07-23T02:41:21;100215.41;;;41.10;20.67
59407;BME280;45208;32.616;-115.472;2022-07-23T02:43:48;100213.03;;;41.09;20.44
59407;BME280;45208;32.616;-115.472;2022-07-23T02:46:15;100213.69;;;40.89;20.86
59407;BME280;45208;32.616;-115.472;2022-07-23T02:48:42;100222.03;;;40.68;21.15
59407;BME280;45208;32.616;-115.472;2022-07-23T02:51:09;100214.22;;;40.54;21.31
59407;BME280;45208;32.616;-115.472;2022-07-23T02:53:41;100226.16;;;40.43;21.78
59407;BME280;45208;32.616;-115.472;2022-07-23T02:56:09;100226.84;;;40.29;21.50
59407;BME280;45208;32.616;-115.472;2022-07-23T02:58:36;100224.38;;;40.13;21.39
59407;BME280;45208;32.616;-115.472;2022-07-23T03:01:05;100225.66;;;40.03;21.35
59407;BME280;45208;32.616;-115.472;2022-07-23T03:03:32;100216.81;;;40.01;21.80
59407;BME280;45208;32.616;-115.472;2022-07-23T03:05:59;100236.75;;;39.92;22.00
59407;BME280;45208;32.616;-115.472;2022-07-23T03:08:27;100222.53;;;39.92;21.99
59407;BME280;45208;32.616;-115.472;2022-07-23T03:10:56;100228.94;;;39.68;22.34
59407;BME280;45208;32.616;-115.472;2022-07-23T03:13:23;100243.47;;;39.70;21.97
59407;BME280;45208;32.616;-115.472;2022-07-23T03:15:51;100244.56;;;39.64;22.05
59407;BME280;45208;32.616;-115.472;2022-07-23T03:18:18;100245.53;;;39.42;22.40
59407;BME280;45208;32.616;-115.472;2022-07-23T03:20:45;100245.06;;;39.35;22.34
59407;BME280;45208;32.616;-115.472;2022-07-23T03:23:12;100249.19;;;39.15;22.82
59407;BME280;45208;32.616;-115.472;2022-07-23T03:25:39;100252.75;;;39.07;23.53
59407;BME280;45208;32.616;-115.472;2022-07-23T03:28:06;100246.75;;;38.95;22.63
59407;BME280;45208;32.616;-115.472;2022-07-23T03:30:33;100259.41;;;39.04;23.51
59407;BME280;45208;32.616;-115.472;2022-07-23T03:33:00;100257.31;;;38.86;23.12
59407;BME280;45208;32.616;-115.472;2022-07-23T03:35:27;100259.03;;;38.65;24.10
59407;BME280;45208;32.616;-115.472;2022-07-23T03:38:16;100259.94;;;38.62;24.06
59407;BME280;45208;32.616;-115.472;2022-07-23T03:40:43;100262.66;;;38.75;23.58
59407;BME280;45208;32.616;-115.472;2022-07-23T03:43:10;100271.50;;;38.77;23.63
59407;BME280;45208;32.616;-115.472;2022-07-23T03:45:37;100271.09;;;38.56;23.36
59407;BME280;45208;32.616;-115.472;2022-07-23T03:48:04;100274.56;;;38.51;23.44
59407;BME280;45208;32.616;-115.472;2022-07-23T03:50:31;100276.38;;;38.27;23.38
59407;BME280;45208;32.616;-115.472;2022-07-23T03:52:57;100283.78;;;38.02;24.35
59407;BME280;45208;32.616;-115.472;2022-07-23T03:55:24;100302.38;;;38.03;24.66
59407;BME280;45208;32.616;-115.472;2022-07-23T03:57:51;100296.66;;;37.94;24.50
59407;BME280;45208;32.616;-115.472;2022-07-23T04:00:18;100304.41;;;37.94;24.44
59407;BME280;45208;32.616;-115.472;2022-07-23T04:02:49;100300.31;;;37.73;25.33
59407;BME280;45208;32.616;-115.472;2022-07-23T04:05:16;100304.63;;;37.65;24.83
59407;BME280;45208;32.616;-115.472;2022-07-23T04:07:47;100314.50;;;37.73;25.05
59407;BME280;45208;32.616;-115.472;2022-07-23T04:10:14;100307.13;;;37.63;24.75
59407;BME280;45208;32.616;-115.472;2022-07-23T04:12:42;100316.31;;;37.67;24.91
59407;BME280;45208;32.616;-115.472;2022-07-23T04:15:09;100319.47;;;37.69;24.43
59407;BME280;45208;32.616;-115.472;2022-07-23T04:17:36;100322.09;;;37.63;24.78
59407;BME280;45208;32.616;-115.472;2022-07-23T04:20:03;100322.56;;;37.74;24.68
59407;BME280;45208;32.616;-115.472;2022-07-23T04:22:36;100318.19;;;37.48;24.70
59407;BME280;45208;32.616;-115.472;2022-07-23T04:25:04;100336.28;;;37.63;24.36
59407;BME280;45208;32.616;-115.472;2022-07-23T04:27:30;100342.38;;;37.53;24.73
59407;BME280;45208;32.616;-115.472;2022-07-23T04:29:59;100341.94;;;37.41;24.81
59407;BME280;45208;32.616;-115.472;2022-07-23T04:32:26;100329.94;;;37.37;24.90
59407;BME280;45208;32.616;-115.472;2022-07-23T04:34:53;100339.38;;;37.09;25.61
59407;BME280;45208;32.616;-115.472;2022-07-23T04:37:20;100351.97;;;36.95;25.07
59407;BME280;45208;32.616;-115.472;2022-07-23T04:39:46;100357.78;;;36.91;25.67
59407;BME280;45208;32.616;-115.472;2022-07-23T04:42:13;100357.88;;;36.75;25.57
59407;BME280;45208;32.616;-115.472;2022-07-23T04:44:41;100376.88;;;36.62;26.28
59407;BME280;45208;32.616;-115.472;2022-07-23T04:47:08;100384.97;;;36.64;26.20
59407;BME280;45208;32.616;-115.472;2022-07-23T04:49:37;100382.78;;;36.55;26.65
59407;BME280;45208;32.616;-115.472;2022-07-23T04:52:04;100379.13;;;36.42;26.56
59407;BME280;45208;32.616;-115.472;2022-07-23T04:54:31;100383.00;;;36.48;26.19
59407;BME280;45208;32.616;-115.472;2022-07-23T04:56:58;100388.22;;;36.62;26.17
59407;BME280;45208;32.616;-115.472;2022-07-23T04:59:25;100387.34;;;36.65;25.62
59407;BME280;45208;32.616;-115.472;2022-07-23T05:02:00;100383.34;;;36.62;25.68
59407;BME280;45208;32.616;-115.472;2022-07-23T05:04:35;100390.25;;;36.74;25.57
59407;BME280;45208;32.616;-115.472;2022-07-23T05:07:02;100390.63;;;36.64;25.14
59407;BME280;45208;32.616;-115.472;2022-07-23T05:09:29;100390.63;;;36.64;25.52
59407;BME280;45208;32.616;-115.472;2022-07-23T05:11:56;100400.75;;;36.36;26.50
59407;BME280;45208;32.616;-115.472;2022-07-23T05:14:23;100405.03;;;36.27;26.92
59407;BME280;45208;32.616;-115.472;2022-07-23T05:16:51;100405.09;;;36.11;27.34
59407;BME280;45208;32.616;-115.472;2022-07-23T05:19:22;100407.25;;;36.20;27.16
59407;BME280;45208;32.616;-115.472;2022-07-23T05:21:49;100414.38;;;36.24;27.93
59407;BME280;45208;32.616;-115.472;2022-07-23T05:24:15;100414.72;;;36.26;27.23
59407;BME280;45208;32.616;-115.472;2022-07-23T05:26:42;100411.19;;;36.10;27.57
59407;BME280;45208;32.616;-115.472;2022-07-23T05:29:10;100421.66;;;35.96;27.97
59407;BME280;45208;32.616;-115.472;2022-07-23T05:31:38;100430.63;;;35.79;28.31
59407;BME280;45208;32.616;-115.472;2022-07-23T05:34:05;100428.06;;;35.84;28.54
59407;BME280;45208;32.616;-115.472;2022-07-23T05:36:34;100432.03;;;35.70;28.83
59407;BME280;45208;32.616;-115.472;2022-07-23T05:39:03;100427.56;;;35.57;29.92
59407;BME280;45208;32.616;-115.472;2022-07-23T05:41:33;100431.34;;;35.50;29.43
59407;BME280;45208;32.616;-115.472;2022-07-23T05:44:02;100429.16;;;35.41;30.08
59407;BME280;45208;32.616;-115.472;2022-07-23T05:46:29;100432.94;;;35.35;30.60
59407;BME280;45208;32.616;-115.472;2022-07-23T05:49:02;100430.63;;;35.30;30.77
59407;BME280;45208;32.616;-115.472;2022-07-23T05:52:08;100422.22;;;35.10;32.51
59407;BME280;45208;32.616;-115.472;2022-07-23T05:54:58;100426.13;;;35.32;31.34
59407;BME280;45208;32.616;-115.472;2022-07-23T05:57:25;100436.56;;;35.19;32.80
59407;BME280;45208;32.616;-115.472;2022-07-23T05:59:52;100428.69;;;35.10;31.39
59407;BME280;45208;32.616;-115.472;2022-07-23T06:02:19;100431.34;;;35.01;32.44
59407;BME280;45208;32.616;-115.472;2022-07-23T06:04:46;100441.47;;;34.99;31.70
59407;BME280;45208;32.616;-115.472;2022-07-23T06:07:22;100433.38;;;34.81;33.09
59407;BME280;45208;32.616;-115.472;2022-07-23T06:09:49;100432.13;;;34.66;33.59
59407;BME280;45208;32.616;-115.472;2022-07-23T06:12:16;100432.97;;;34.63;33.67
59407;BME280;45208;32.616;-115.472;2022-07-23T06:14:43;100436.97;;;34.65;33.80
59407;BME280;45208;32.616;-115.472;2022-07-23T06:17:10;100435.59;;;34.53;33.83
59407;BME280;45208;32.616;-115.472;2022-07-23T06:19:37;100428.38;;;34.52;33.81
59407;BME280;45208;32.616;-115.472;2022-07-23T06:22:04;100426.53;;;34.62;33.41
59407;BME280;45208;32.616;-115.472;2022-07-23T06:24:31;100426.47;;;34.66;32.79
59407;BME280;45208;32.616;-115.472;2022-07-23T06:26:57;100424.72;;;34.72;33.13
59407;BME280;45208;32.616;-115.472;2022-07-23T06:29:24;100428.72;;;34.54;33.80
59407;BME280;45208;32.616;-115.472;2022-07-23T06:31:51;100423.81;;;34.39;33.94
59407;BME280;45208;32.616;-115.472;2022-07-23T06:34:20;100416.50;;;34.41;33.95
59407;BME280;45208;32.616;-115.472;2022-07-23T06:36:47;100426.41;;;34.49;33.80
59407;BME280;45208;32.616;-115.472;2022-07-23T06:39:13;100430.13;;;34.63;33.68
59407;BME280;45208;32.616;-115.472;2022-07-23T06:41:44;100414.97;;;34.57;33.37
59407;BME280;45208;32.616;-115.472;2022-07-23T06:44:11;100419.53;;;34.50;32.78
59407;BME280;45208;32.616;-115.472;2022-07-23T06:46:40;100407.31;;;34.37;33.06
59407;BME280;45208;32.616;-115.472;2022-07-23T06:49:07;100415.31;;;34.19;34.33
59407;BME280;45208;32.616;-115.472;2022-07-23T06:51:34;100405.03;;;34.09;34.42
59407;BME280;45208;32.616;-115.472;2022-07-23T06:54:02;100405.41;;;34.11;34.21
59407;BME280;45208;32.616;-115.472;2022-07-23T06:56:29;100410.28;;;34.30;33.95
59407;BME280;45208;32.616;-115.472;2022-07-23T06:58:56;100400.50;;;34.35;33.89
59407;BME280;45208;32.616;-115.472;2022-07-23T07:01:22;100397.88;;;34.24;33.45
59407;BME280;45208;32.616;-115.472;2022-07-23T07:03:49;100400.44;;;34.18;33.61
59407;BME280;45208;32.616;-115.472;2022-07-23T07:06:17;100399.91;;;34.04;33.90
59407;BME280;45208;32.616;-115.472;2022-07-23T07:08:44;100399.28;;;33.96;34.60
59407;BME280;45208;32.616;-115.472;2022-07-23T07:11:11;100390.22;;;33.85;34.95
59407;BME280;45208;32.616;-115.472;2022-07-23T07:13:38;100401.50;;;33.85;34.94
59407;BME280;45208;32.616;-115.472;2022-07-23T07:16:05;100396.25;;;33.83;34.93
59407;BME280;45208;32.616;-115.472;2022-07-23T07:18:32;100393.59;;;33.76;35.03
59407;BME280;45208;32.616;-115.472;2022-07-23T07:20:59;100391.84;;;33.82;34.58
59407;BME280;45208;32.616;-115.472;2022-07-23T07:23:26;100398.13;;;33.70;34.75
59407;BME280;45208;32.616;-115.472;2022-07-23T07:25:52;100385.97;;;33.73;34.62
59407;BME280;45208;32.616;-115.472;2022-07-23T07:28:19;100391.19;;;33.75;35.24
59407;BME280;45208;32.616;-115.472;2022-07-23T07:30:46;100384.16;;;33.63;35.22
59407;BME280;45208;32.616;-115.472;2022-07-23T07:33:13;100379.50;;;33.53;35.60
59407;BME280;45208;32.616;-115.472;2022-07-23T07:35:39;100383.25;;;33.46;35.88
59407;BME280;45208;32.616;-115.472;2022-07-23T07:38:06;100376.56;;;33.37;36.01
59407;BME280;45208;32.616;-115.472;2022-07-23T07:40:33;100374.97;;;33.35;35.67
59407;BME280;45208;32.616;-115.472;2022-07-23T07:43:00;100379.75;;;33.39;36.27
59407;BME280;45208;32.616;-115.472;2022-07-23T07:45:27;100377.19;;;33.48;35.53
59407;BME280;45208;32.616;-115.472;2022-07-23T07:47:54;100376.72;;;33.73;35.46
59407;BME280;45208;32.616;-115.472;2022-07-23T07:50:21;100381.03;;;33.57;35.59
59407;BME280;45208;32.616;-115.472;2022-07-23T07:52:48;100385.34;;;33.42;35.80
59407;BME280;45208;32.616;-115.472;2022-07-23T07:55:17;100391.56;;;33.30;36.16
59407;BME280;45208;32.616;-115.472;2022-07-23T07:57:44;100400.88;;;33.27;36.76
59407;BME280;45208;32.616;-115.472;2022-07-23T08:00:11;100389.66;;;33.23;36.33
59407;BME280;45208;32.616;-115.472;2022-07-23T08:02:48;100388.75;;;33.30;36.01
59407;BME280;45208;32.616;-115.472;2022-07-23T08:05:17;100389.66;;;33.23;35.82
59407;BME280;45208;32.616;-115.472;2022-07-23T08:07:44;100384.31;;;33.05;36.75
59407;BME280;45208;32.616;-115.472;2022-07-23T08:10:11;100390.75;;;33.06;37.04
59407;BME280;45208;32.616;-115.472;2022-07-23T08:12:43;100380.28;;;33.07;37.02
59407;BME280;45208;32.616;-115.472;2022-07-23T08:15:17;100383.03;;;33.10;37.72
59407;BME280;45208;32.616;-115.472;2022-07-23T08:17:46;100380.97;;;33.14;37.27
59407;BME280;45208;32.616;-115.472;2022-07-23T08:20:14;100382.78;;;33.01;36.87
59407;BME280;45208;32.616;-115.472;2022-07-23T08:22:48;100390.00;;;33.02;37.27
59407;BME280;45208;32.616;-115.472;2022-07-23T08:25:16;100393.19;;;33.04;37.44
59407;BME280;45208;32.616;-115.472;2022-07-23T08:27:43;100397.34;;;32.96;37.35
59407;BME280;45208;32.616;-115.472;2022-07-23T08:30:10;100400.72;;;32.84;38.20
59407;BME280;45208;32.616;-115.472;2022-07-23T08:32:49;100401.97;;;32.79;38.23
59407;BME280;45208;32.616;-115.472;2022-07-23T08:35:17;100405.72;;;32.72;38.28
59407;BME280;45208;32.616;-115.472;2022-07-23T08:37:44;100405.84;;;32.62;38.57
59407;BME280;45208;32.616;-115.472;2022-07-23T08:40:13;100406.63;;;32.62;42.03
59407;BME280;45208;32.616;-115.472;2022-07-23T08:42:39;100409.13;;;32.57;41.27
59407;BME280;45208;32.616;-115.472;2022-07-23T08:45:08;100421.25;;;32.54;42.03
59407;BME280;45208;32.616;-115.472;2022-07-23T08:47:37;100413.19;;;32.56;41.48
59407;BME280;45208;32.616;-115.472;2022-07-23T08:50:04;100415.66;;;32.50;40.21
59407;BME280;45208;32.616;-115.472;2022-07-23T08:52:33;100420.47;;;32.50;41.35
59407;BME280;45208;32.616;-115.472;2022-07-23T08:55:01;100415.69;;;32.46;41.65
59407;BME280;45208;32.616;-115.472;2022-07-23T08:57:27;100413.34;;;32.41;41.47
59407;BME280;45208;32.616;-115.472;2022-07-23T08:59:54;100415.25;;;32.52;40.57
59407;BME280;45208;32.616;-115.472;2022-07-23T09:02:21;100423.75;;;32.44;41.48
59407;BME280;45208;32.616;-115.472;2022-07-23T09:04:47;100417.38;;;32.40;42.42
59407;BME280;45208;32.616;-115.472;2022-07-23T09:07:15;100425.41;;;32.42;40.68
59407;BME280;45208;32.616;-115.472;2022-07-23T09:09:42;100430.72;;;32.36;41.03
59407;BME280;45208;32.616;-115.472;2022-07-23T09:12:10;100427.47;;;32.38;41.34
59407;BME280;45208;32.616;-115.472;2022-07-23T09:14:44;100427.53;;;32.31;41.57
59407;BME280;45208;32.616;-115.472;2022-07-23T09:17:17;100424.00;;;32.23;42.18
59407;BME280;45208;32.616;-115.472;2022-07-23T09:19:45;100436.81;;;32.28;41.23
59407;BME280;45208;32.616;-115.472;2022-07-23T09:22:21;100438.41;;;32.29;41.51
59407;BME280;45208;32.616;-115.472;2022-07-23T09:25:13;100443.13;;;32.39;40.71
59407;BME280;45208;32.616;-115.472;2022-07-23T09:27:59;100447.91;;;32.42;41.54
59407;BME280;45208;32.616;-115.472;2022-07-23T09:30:32;100443.13;;;32.39;40.90
59407;BME280;45208;32.616;-115.472;2022-07-23T09:35:52;100440.19;;;32.15;41.83
59407;BME280;45208;32.616;-115.472;2022-07-23T09:38:21;100440.59;;;32.10;43.05
59407;BME280;45208;32.616;-115.472;2022-07-23T09:41:11;100435.22;;;32.27;42.90
59407;BME280;45208;32.616;-115.472;2022-07-23T09:43:39;100434.94;;;32.17;42.63
59407;BME280;45208;32.616;-115.472;2022-07-23T09:46:20;100442.44;;;32.28;42.04
59407;BME280;45208;32.616;-115.472;2022-07-23T09:48:48;100445.84;;;32.08;41.19
59407;BME280;45208;32.616;-115.472;2022-07-23T09:51:14;100444.78;;;31.95;42.57
59407;BME280;45208;32.616;-115.472;2022-07-23T09:53:45;100446.09;;;31.87;43.83
59407;BME280;45208;32.616;-115.472;2022-07-23T09:56:13;100467.78;;;31.86;43.87
59407;BME280;45208;32.616;-115.472;2022-07-23T09:58:41;100458.81;;;31.99;44.52
59407;BME280;45208;32.616;-115.472;2022-07-23T10:01:15;100454.84;;;31.96;45.10
59407;BME280;45208;32.616;-115.472;2022-07-23T10:03:42;100435.81;;;32.07;44.20
59407;BME280;45208;32.616;-115.472;2022-07-23T10:06:45;100445.06;;;32.08;44.74
59407;BME280;45208;32.616;-115.472;2022-07-23T10:09:33;100444.94;;;32.19;43.34
59407;BME280;45208;32.616;-115.472;2022-07-23T10:12:26;100453.44;;;32.11;44.78
59407;BME280;45208;32.616;-115.472;2022-07-23T10:14:59;100463.47;;;32.12;44.56
59407;BME280;45208;32.616;-115.472;2022-07-23T10:17:29;100463.88;;;32.14;43.66
59407;BME280;45208;32.616;-115.472;2022-07-23T10:19:56;100470.03;;;32.02;44.74
59407;BME280;45208;32.616;-115.472;2022-07-23T10:22:32;100481.56;;;32.15;44.69
59407;BME280;45208;32.616;-115.472;2022-07-23T10:27:37;100502.50;;;32.07;45.57
59407;BME280;45208;32.616;-115.472;2022-07-23T10:35:47;100477.94;;;32.14;46.04
59407;BME280;45208;32.616;-115.472;2022-07-23T10:38:30;100485.16;;;32.15;46.40
59407;BME280;45208;32.616;-115.472;2022-07-23T10:40:59;100480.84;;;32.04;46.67
59407;BME280;45208;32.616;-115.472;2022-07-23T10:43:28;100468.06;;;31.99;47.71
59407;BME280;45208;32.616;-115.472;2022-07-23T10:45:56;100468.34;;;32.08;46.93
59407;BME280;45208;32.616;-115.472;2022-07-23T10:48:25;100466.09;;;31.93;47.44
59407;BME280;45208;32.616;-115.472;2022-07-23T10:59:23;100479.03;;;31.86;47.58
59407;BME280;45208;32.616;-115.472;2022-07-23T11:01:50;100464.63;;;31.77;48.19
59407;BME280;45208;32.616;-115.472;2022-07-23T11:04:17;100462.28;;;31.69;48.43
59407;BME280;45208;32.616;-115.472;2022-07-23T11:15:08;100467.44;;;31.29;48.81
59407;BME280;45208;32.616;-115.472;2022-07-23T11:20:22;100464.94;;;31.38;47.54
59407;BME280;45208;32.616;-115.472;2022-07-23T11:27:50;100465.00;;;31.31;48.39
59407;BME280;45208;32.616;-115.472;2022-07-23T11:35:36;100471.75;;;31.44;48.94
59407;BME280;45208;32.616;-115.472;2022-07-23T11:38:17;100462.03;;;31.52;48.36
59407;BME280;45208;32.616;-115.472;2022-07-23T11:40:48;100463.72;;;31.43;48.32
59407;BME280;45208;32.616;-115.472;2022-07-23T11:43:16;100466.47;;;31.50;48.87
59407;BME280;45208;32.616;-115.472;2022-07-23T11:45:54;100468.13;;;31.44;48.77
59407;BME280;45208;32.616;-115.472;2022-07-23T11:48:25;100473.31;;;31.49;47.85
59407;BME280;45208;32.616;-115.472;2022-07-23T11:50:53;100482.13;;;31.51;49.80
59407;BME280;45208;32.616;-115.472;2022-07-23T11:53:29;100488.03;;;31.64;49.40
59407;BME280;45208;32.616;-115.472;2022-07-23T11:56:11;100486.75;;;31.72;49.85
59407;BME280;45208;32.616;-115.472;2022-07-23T11:58:39;100488.75;;;31.78;49.31
59407;BME280;45208;32.616;-115.472;2022-07-23T12:01:06;100499.00;;;31.96;48.69
59407;BME280;45208;32.616;-115.472;2022-07-23T12:03:33;100504.75;;;31.85;48.53
59407;BME280;45208;32.616;-115.472;2022-07-23T12:06:00;100511.88;;;31.93;47.66
59407;BME280;45208;32.616;-115.472;2022-07-23T12:08:26;100491.72;;;32.02;48.58
59407;BME280;45208;32.616;-115.472;2022-07-23T12:10:54;100490.47;;;32.06;48.95
59407;BME280;45208;32.616;-115.472;2022-07-23T12:13:21;100488.03;;;32.08;48.95
59407;BME280;45208;32.616;-115.472;2022-07-23T12:15:53;100483.94;;;32.16;48.20
59407;BME280;45208;32.616;-115.472;2022-07-23T12:18:24;100473.97;;;32.08;48.16
59407;BME280;45208;32.616;-115.472;2022-07-23T12:20:54;100486.38;;;32.14;48.32
59407;BME280;45208;32.616;-115.472;2022-07-23T12:23:24;100486.75;;;32.16;47.52
59407;BME280;45208;32.616;-115.472;2022-07-23T12:25:52;100489.09;;;32.22;47.25
59407;BME280;45208;32.616;-115.472;2022-07-23T12:28:27;100480.19;;;32.30;46.37
59407;BME280;45208;32.616;-115.472;2022-07-23T12:30:55;100482.19;;;32.30;46.66
59407;BME280;45208;32.616;-115.472;2022-07-23T12:33:32;100496.25;;;32.30;46.92
59407;BME280;45208;32.616;-115.472;2022-07-23T12:36:02;100495.09;;;32.24;46.65
59407;BME280;45208;32.616;-115.472;2022-07-23T12:38:42;100505.28;;;32.14;47.49
59407;BME280;45208;32.616;-115.472;2022-07-23T12:41:10;100513.38;;;32.05;47.76
59407;BME280;45208;32.616;-115.472;2022-07-23T12:43:39;100525.47;;;32.02;47.93
59407;BME280;45208;32.616;-115.472;2022-07-23T12:46:14;100516.69;;;31.96;48.80
59407;BME280;45208;32.616;-115.472;2022-07-23T12:51:26;100537.63;;;31.88;48.81
59407;BME280;45208;32.616;-115.472;2022-07-23T12:53:55;100547.72;;;31.82;49.05
59407;BME280;45208;32.616;-115.472;2022-07-23T12:56:30;100548.94;;;31.81;49.47
59407;BME280;45208;32.616;-115.472;2022-07-23T13:01:32;100565.00;;;31.77;50.43
59407;BME280;45208;32.616;-115.472;2022-07-23T13:04:05;100563.78;;;31.81;50.86
59407;BME280;45208;32.616;-115.472;2022-07-23T13:06:35;100582.56;;;31.92;49.09
59407;BME280;45208;32.616;-115.472;2022-07-23T13:09:04;100593.06;;;31.84;49.74
59407;BME280;45208;32.616;-115.472;2022-07-23T13:11:31;100597.56;;;31.78;49.61
59407;BME280;45208;32.616;-115.472;2022-07-23T13:13:59;100623.97;;;31.88;49.25
59407;BME280;45208;32.616;-115.472;2022-07-23T13:16:27;100639.22;;;31.86;48.74